Flight Track Log - Related Links

Times and Time Zones

All times are in EDT time to prevent confusion due to time zone crossing. See the N860BA flight status page for this flight to view local times or setup timezone preferences in your user account.

Time Position Orientation Groundspeed Altitude Reporting Facility
EDT Latitude Longitude Course Direction KTS MPH feet Rate Location/Type
Wed 20:42:44 32.7633 -117.3047 288° West 213 245 4,700  Level Los Angeles Center
Wed 20:43:46 32.7381 -117.3547 239° Southwest 224 258 7,500 2,803 Climbing Los Angeles Center
Wed 20:45:01 32.6942 -117.2700 122° Southeast 225 259 11,100 2,496 Climbing Los Angeles Center
Wed 20:46:03 32.6728 -117.1936 108° East 237 273 13,200 1,887 Climbing Los Angeles Center
Wed 20:47:00 32.8138 -116.2961 77° East  Level Estimated
Wed 20:47:05 32.6461 -117.0986 108° East 293 337 15,000  Level Los Angeles Center
Wed 20:48:07 32.6150 -116.9964 110° East 322 371 17,100 1,839 Climbing Los Angeles Center
Wed 20:49:09 32.6186 -116.8772 88° East 369 425 18,800 1,440 Climbing Los Angeles Center
Wed 20:50:12 32.6361 -116.7203 82° East 396 456 20,100 1,152 Climbing Los Angeles Center
Wed 20:51:14 32.6508 -116.5744 83° East 445 512 21,200 1,065 Climbing Los Angeles Center
Wed 20:52:16 32.6639 -116.4264 84° East 459 528 22,300 1,016 Climbing Los Angeles Center
Wed 20:53:18 32.6786 -116.2725 83° East 477 549 23,300 1,113 Climbing Los Angeles Center
Wed 20:54:20 32.6972 -116.0836 83° East 487 560 24,600 1,161 Climbing Los Angeles Center
Wed 20:55:22 32.7117 -115.9233 84° East 489 563 25,700 1,016 Climbing Los Angeles Center
Wed 20:56:24 32.7264 -115.7603 84° East 497 572 26,700 968 Climbing Los Angeles Center
Wed 20:57:26 32.7417 -115.5956 84° East 502 578 27,700 1,008 Climbing Los Angeles Center
Wed 20:58:29 32.7531 -115.4303 85° East 504 580 28,800 1,095 Climbing Los Angeles Center
Wed 20:59:43 32.7597 -115.1972 88° East 505 581 30,200 1,103 Climbing Los Angeles Center
Wed 21:00:45 32.7636 -115.0325 88° East 502 578 31,300 1,016 Climbing Los Angeles Center
Wed 21:01:47 32.7669 -114.8681 89° East 500 575 32,300 1,016 Climbing Los Angeles Center
Wed 21:02:49 32.7703 -114.7042 89° East 498 573 33,400 1,008 Climbing Los Angeles Center
Wed 21:03:52 32.7739 -114.5406 88° East 497 572 34,400 1,056 Climbing Los Angeles Center
Wed 21:04:54 32.7769 -114.3478 89° East 490 564 35,600 919 Climbing Los Angeles Center
Wed 21:05:56 32.7772 -114.1842 90° East 494 568 36,300 629 Climbing Los Angeles Center
Wed 21:06:58 32.7808 -114.0214 88° East 494 568 36,900 339 Climbing Los Angeles Center
Wed 21:08:00 32.7933 -113.8564 85° East 500 575 37,000 48 Climbing Los Angeles Center
Wed 21:09:02 32.8200 -113.6897 79° East 509 586 37,000  Level Los Angeles Center
Wed 21:10:04 32.8422 -113.5219 81° East 513 590 37,000  Level Los Angeles Center
Wed 21:11:06 32.8653 -113.3481 81° East 518 596 37,000  Level Los Angeles Center
Wed 21:12:08 32.8892 -113.1781 80° East 516 594 37,000  Level Los Angeles Center
Wed 21:13:35 32.9275 -112.9033 80° East 517 595 37,000  Level Albuquerque Center
Wed 21:14:36 32.9433 -112.7314 84° East 520 598 37,000  Level Albuquerque Center
Wed 21:15:38 32.9222 -112.5644 99° East 514 592 37,000  Level Albuquerque Center
Wed 21:16:39 32.8997 -112.3958 99° East 511 588 37,000  Level Albuquerque Center
Wed 21:17:41 32.8797 -112.2367 98° East 511 588 37,000  Level Albuquerque Center
Wed 21:18:42 32.8583 -112.0703 99° East 511 588 37,000  Level Albuquerque Center
Wed 21:19:44 32.8358 -111.9028 99° East 514 592 37,000  Level Albuquerque Center
Wed 21:20:45 32.8094 -111.7019 99° East 516 594 37,000  Level Albuquerque Center
Wed 21:21:47 32.7867 -111.5342 99° East 516 594 37,000  Level Albuquerque Center
Wed 21:22:48 32.7631 -111.3675 100° East 516 594 37,000  Level Albuquerque Center
Wed 21:23:50 32.7408 -111.2000 99° East 515 593 37,000  Level Albuquerque Center
Wed 21:24:51 32.7167 -111.0294 100° East 519 597 37,000  Level Albuquerque Center
Wed 21:25:53 32.6933 -110.8611 99° East 520 598 37,000  Level Albuquerque Center
Wed 21:26:54 32.6697 -110.6942 99° East 519 597 37,000  Level Albuquerque Center
Wed 21:27:56 32.6408 -110.4914 100° East 519 597 37,000  Level Albuquerque Center
Wed 21:28:57 32.6156 -110.3244 100° East 519 597 37,000  Level Albuquerque Center
Wed 21:29:59 32.5903 -110.1564 100° East 519 597 37,000  Level Albuquerque Center
Wed 21:31:00 32.5644 -109.9883 100° East 520 598 37,000  Level Albuquerque Center
Wed 21:32:01 32.5394 -109.8197 100° East 521 600 37,000  Level Albuquerque Center
Wed 21:33:03 32.5128 -109.6503 101° East 524 603 37,000  Level Albuquerque Center
Wed 21:34:04 32.4869 -109.4825 100° East 524 603 37,000  Level Albuquerque Center
Wed 21:35:06 32.4556 -109.2831 101° East 520 598 37,000  Level Albuquerque Center
Wed 21:36:07 32.4303 -109.1158 100° East 520 598 37,000  Level Albuquerque Center
Wed 21:37:08 32.4042 -108.9492 100° East 521 600 37,000  Level Albuquerque Center
Wed 21:38:10 32.3783 -108.7822 100° East 522 601 37,000  Level Albuquerque Center
Wed 21:39:11 32.3506 -108.6147 101° East 522 601 37,000  Level Albuquerque Center
Wed 21:40:13 32.3192 -108.4250 101° East 519 597 37,000  Level Albuquerque Center
Wed 21:41:14 32.2928 -108.2564 100° East 522 601 37,000  Level Albuquerque Center
Wed 21:42:15 32.2656 -108.0897 101° East 521 600 37,000  Level Albuquerque Center
Wed 21:43:17 32.2369 -107.9233 101° East 520 598 37,000  Level Albuquerque Center
Wed 21:44:18 32.2103 -107.7567 101° East 520 598 37,000  Level Albuquerque Center
Wed 21:45:19 32.1819 -107.5889 101° East 524 603 37,000  Level Albuquerque Center
Wed 21:46:21 32.1536 -107.4222 101° East 524 603 37,000  Level Albuquerque Center
Wed 21:47:22 32.1200 -107.2219 101° East 526 605 37,000  Level Albuquerque Center
Wed 21:48:24 32.0922 -107.0550 101° East 526 605 37,000  Level Albuquerque Center
Wed 21:49:25 32.0631 -106.8875 102° East 527 606 37,000  Level Albuquerque Center
Wed 21:50:27 32.0333 -106.7208 102° East 525 604 37,000  Level Albuquerque Center
Wed 21:51:28 32.0028 -106.5525 102° East 528 608 37,000  Level Albuquerque Center
Wed 21:52:29 31.9731 -106.3850 102° East 527 606 37,000  Level Albuquerque Center
Wed 21:53:31 31.9508 -106.1797 97° East 529 609 37,000  Level Albuquerque Center
Wed 21:54:32 31.9478 -106.0078 91° East 528 608 37,000  Level Albuquerque Center
Wed 21:55:34 31.9439 -105.8314 91° East 523 602 37,000  Level Albuquerque Center
Wed 21:56:35 31.9408 -105.6606 91° East 521 600 37,000  Level Albuquerque Center
Wed 21:57:37 31.9375 -105.4911 91° East 517 595 37,000  Level Albuquerque Center
Wed 21:58:38 31.9339 -105.3231 91° East 515 593 37,000  Level Albuquerque Center
Wed 21:59:39 31.9306 -105.1564 91° East 509 586 37,000  Level Albuquerque Center
Wed 22:00:41 31.9275 -104.9883 91° East 512 589 37,000  Level Albuquerque Center
Wed 22:01:42 31.9239 -104.8194 91° East 514 592 37,000  Level Albuquerque Center
Wed 22:02:44 31.9197 -104.6506 92° East 515 593 37,000  Level Albuquerque Center
Wed 22:03:45 31.9144 -104.4814 92° East 516 594 37,000  Level Albuquerque Center
Wed 22:04:46 31.9103 -104.3150 92° East 512 589 37,000  Level Albuquerque Center
Wed 22:05:48 31.9047 -104.1122 92° East 515 593 37,000  Level Albuquerque Center
Wed 22:06:49 31.9008 -103.9597 92° East 514 592 37,000  Level Albuquerque Center
Wed 22:07:51 31.8944 -103.7917 93° East 514 592 37,000  Level Albuquerque Center
Wed 22:08:52 31.8900 -103.6244 92° East 513 590 37,000  Level Albuquerque Center
Wed 22:09:53 31.8844 -103.4581 92° East 513 590 37,000  Level Albuquerque Center
Wed 22:10:55 31.8772 -103.2564 92° East 515 593 37,000  Level Albuquerque Center
Wed 22:11:56 31.8928 -103.1011 83° East 510 587 37,000  Level Albuquerque Center
Wed 22:12:58 31.9117 -102.9331 82° East 512 589 37,000  Level Albuquerque Center
Wed 22:13:59 31.9319 -102.7656 82° East 515 593 37,000  Level Albuquerque Center
Wed 22:15:00 31.9511 -102.5969 82° East 516 594 37,000  Level Albuquerque Center
Wed 22:16:02 31.9700 -102.4269 82° East 516 594 37,000  Level Albuquerque Center
Wed 22:17:12 31.9958 -102.2242 81° East 519 597 37,000  Level Fort Worth Center
Wed 22:18:12 32.0147 -102.0536 83° East 519 597 37,000  Level Fort Worth Center
Wed 22:19:12 32.0333 -101.8856 83° East 519 597 37,000  Level Fort Worth Center
Wed 22:20:12 32.0517 -101.7222 82° East 519 597 37,000  Level Fort Worth Center
Wed 22:21:11 32.0678 -101.5539 84° East 513 590 37,000  Level Fort Worth Center
Wed 22:22:12 32.0878 -101.3856 82° East 518 596 37,000  Level Fort Worth Center
Wed 22:23:12 32.1036 -101.2147 84° East 518 596 37,000  Level Fort Worth Center
Wed 22:24:12 32.1169 -101.0458 85° East 518 596 37,000  Level Fort Worth Center
Wed 22:25:12 32.1342 -100.8822 83° East 512 589 37,000  Level Fort Worth Center
Wed 22:26:12 32.1489 -100.7161 84° East 512 589 37,000  Level Fort Worth Center
Wed 22:27:11 32.1658 -100.5472 83° East 512 589 37,000  Level Fort Worth Center
Wed 22:28:12 32.1825 -100.3786 83° East 512 589 37,000  Level Fort Worth Center
Wed 22:29:11 32.1967 -100.2097 84° East 517 595 37,000  Level Fort Worth Center
Wed 22:30:11 32.2108 -100.0406 84° East 517 595 37,000  Level Fort Worth Center
Wed 22:31:12 32.2308 -99.8742 82° East 517 595 37,000  Level Fort Worth Center
Wed 22:32:11 32.2489 -99.7028 83° East 522 601 37,000 -250 Level Fort Worth Center
Wed 22:33:12 32.2664 -99.5336 83° East 517 595 36,500 -1,350 Descending Fort Worth Center
Wed 22:34:11 32.2858 -99.3622 82° East 522 601 34,300 -2,300 Descending Fort Worth Center
Wed 22:35:12 32.3050 -99.1931 82° East 522 601 31,900 -2,380 Descending Fort Worth Center
Wed 22:36:12 32.3219 -99.0236 83° East 517 595 29,500 -2,400 Descending Fort Worth Center
Wed 22:37:12 32.3386 -98.8642 83° East 510 587 27,100 -2,450 Descending Fort Worth Center
Wed 22:38:12 32.3569 -98.7144 82° East 484 557 24,600 -2,150 Descending Fort Worth Center
Wed 22:39:12 32.3731 -98.5622 83° East 465 535 22,800 -1,765 Descending Fort Worth Center
Wed 22:40:11 32.3847 -98.4047 85° East 444 511 21,100 -1,650 Descending Fort Worth Center
Wed 22:41:12 32.3961 -98.2819 84° East 424 488 19,500 -1,587 Descending Fort Worth Center
Wed 22:42:12 32.4117 -98.1319 83° East 412 474 17,900 -1,550 Descending Fort Worth Center
Wed 22:43:12 32.4228 -98.0164 83° East 402 463 16,400 -1,650 Descending Fort Worth Center
Wed 22:44:12 32.4381 -97.8714 83° East 402 463 14,600 -1,700 Descending Fort Worth Center
Wed 22:45:12 32.4467 -97.7556 85° East 402 463 13,000 -1,700 Descending Fort Worth Center
Wed 22:46:12 32.4594 -97.6128 84° East 402 463 11,200 -1,000 Descending Fort Worth Center
Wed 22:47:12 32.4783 -97.4972 79° East 397 457 11,000 -100 Descending Fort Worth Center
Wed 22:48:12 32.5642 -97.3911 46° Northeast 392 451 11,000  Level Fort Worth Center
Wed 22:49:12 32.6414 -97.3000 45° Northeast 390 449 11,000  Level Fort Worth Center
Wed 22:50:12 32.6997 -97.2283 46° Northeast 323 372 11,000  Level Fort Worth Center
Wed 22:51:12 32.7539 -97.1764 39° Northeast 258 297 11,000 -555 Level Fort Worth Center
Wed 22:52:11 32.8144 -97.1736 North 229 264 9,900 -1,400 Descending Fort Worth Center
Wed 22:53:12 32.8833 -97.1758 358° North 229 264 8,200 -1,750 Descending Fort Worth Center
Wed 22:54:11 32.9186 -97.0992 61° Northeast 218 251 6,400 -1,957 Descending Fort Worth Center
Wed 22:54:44 32.9333 -97.0333 75° East 269 310 5,200 -1,920 Descending Dallas / Fort Worth TRACON
Wed 22:55:26 32.9500 -96.9833 68° East 268 308 4,000 -1,111 Descending Dallas / Fort Worth TRACON
Wed 22:56:32 32.9833 -96.9000 64° Northeast 220 253 3,200 -857 Descending Dallas / Fort Worth TRACON
Wed 22:57:32 33.0167 -96.8667 40° Northeast 156 180 2,200 -1,000 Descending Dallas / Fort Worth TRACON
Wed 22:58:32 33.0000 -96.8500 140° Southeast 109 125 1,200 -1,000 Descending Dallas / Fort Worth TRACON
Wed 23:00:00 32.9667 -96.8333 52° Northeast  Level FlightAware Approximate
Wed 23:07:00 32.9686 -96.8364 52° Northeast  Level Estimated
Wed 23:08:00 32.9667 -96.8333 52° Northeast  Level FlightAware Approximate

Login

Don't have an account? Register now (free) for customized features, flight alerts, and more!